Time;durP1;ratioP1;P1;durP2;ratioP2;P2;SDS_P1;SDS_P2;PMS_P1;PMS_P2;Temp;Humidity;BMP_temperature;BMP_pressure;BME280_temperature;BME280_humidity;BME280_pressure;Samples;Min_cycle;Max_cycle;Signal;HPM_P1;HPM_P2
2023/03/05 00:01:40;;;;;;;14.23;6.93;;;1.10;99.90;;;;;;5044505;28;20757;-64
2023/03/05 00:04:29;;;;;;;17.80;6.37;;;1.10;99.90;;;;;;5070712;28;20369;-63
2023/03/05 00:07:18;;;;;;;14.73;6.53;;;1.20;99.90;;;;;;5046168;28;20316;-64
2023/03/05 00:10:08;;;;;;;12.90;4.87;;;1.20;99.90;;;;;;5068534;28;20226;-63
2023/03/05 00:12:57;;;;;;;16.33;6.17;;;1.10;99.90;;;;;;5062798;28;20231;-64
2023/03/05 00:15:47;;;;;;;21.10;9.50;;;1.20;99.90;;;;;;5061507;28;20353;-65
2023/03/05 00:18:36;;;;;;;22.70;8.93;;;1.10;99.90;;;;;;5043594;28;20229;-65
2023/03/05 00:21:26;;;;;;;19.77;7.17;;;1.20;99.90;;;;;;5061129;28;20261;-66
2023/03/05 00:24:17;;;;;;;18.60;8.17;;;1.20;99.90;;;;;;5064431;28;20255;-65
2023/03/05 00:27:09;;;;;;;15.97;7.43;;;1.10;99.90;;;;;;5066108;28;20264;-65
2023/03/05 00:29:58;;;;;;;18.20;7.27;;;1.20;99.90;;;;;;5047630;28;20585;-66
2023/03/05 00:32:48;;;;;;;19.60;7.33;;;1.00;99.90;;;;;;5052527;28;20251;-64
2023/03/05 00:35:40;;;;;;;15.27;7.90;;;1.00;99.90;;;;;;5058521;28;20234;-64
2023/03/05 00:38:28;;;;;;;19.00;9.07;;;1.00;99.90;;;;;;5047179;28;20734;-63
2023/03/05 00:41:17;;;;;;;21.97;8.07;;;1.00;99.90;;;;;;5049397;28;20352;-64
2023/03/05 00:44:06;;;;;;;22.70;8.20;;;1.10;99.90;;;;;;5049591;28;20315;-64
2023/03/05 00:46:55;;;;;;;19.43;8.40;;;1.10;99.90;;;;;;5061029;28;20337;-62
2023/03/05 00:49:46;;;;;;;18.97;7.83;;;1.00;99.90;;;;;;5040972;28;20213;-65
2023/03/05 00:52:34;;;;;;;17.33;7.87;;;0.90;99.90;;;;;;5061192;28;20269;-65
2023/03/05 00:55:23;;;;;;;21.70;8.10;;;0.90;99.90;;;;;;5043013;28;20232;-63
2023/03/05 00:58:12;;;;;;;18.90;7.83;;;0.80;99.90;;;;;;5058107;28;20216;-64
2023/03/05 01:01:02;;;;;;;19.00;8.13;;;0.90;99.90;;;;;;5056397;28;20293;-64
2023/03/05 01:03:52;;;;;;;17.50;7.30;;;1.00;99.90;;;;;;5045972;28;20294;-63
2023/03/05 01:06:43;;;;;;;17.27;7.40;;;0.80;99.90;;;;;;5048382;28;20957;-64
2023/03/05 01:09:34;;;;;;;16.60;6.07;;;0.80;99.90;;;;;;5036033;28;20241;-65
2023/03/05 01:12:23;;;;;;;15.47;6.47;;;0.90;99.90;;;;;;5048513;28;20793;-64
2023/03/05 01:15:12;;;;;;;17.10;7.00;;;0.90;99.90;;;;;;5043671;28;20216;-63
2023/03/05 01:18:01;;;;;;;14.83;5.87;;;0.90;99.90;;;;;;5040860;28;20319;-63
2023/03/05 01:20:50;;;;;;;15.63;7.20;;;0.90;99.90;;;;;;5055961;28;20312;-65
2023/03/05 01:23:40;;;;;;;12.70;6.13;;;0.90;99.90;;;;;;5042497;28;20248;-66
2023/03/05 01:26:29;;;;;;;15.33;6.30;;;0.90;99.90;;;;;;5060691;28;20306;-64
2023/03/05 01:29:18;;;;;;;15.17;6.23;;;0.80;99.90;;;;;;5058870;28;20228;-66
2023/03/05 01:32:07;;;;;;;16.10;6.77;;;0.80;99.90;;;;;;5038624;28;20324;-65
2023/03/05 01:34:56;;;;;;;13.10;6.57;;;0.90;99.90;;;;;;5041720;28;20720;-65
2023/03/05 01:37:45;;;;;;;18.67;7.67;;;0.80;99.90;;;;;;5046994;28;20391;-66
2023/03/05 01:40:35;;;;;;;18.33;7.50;;;0.80;99.90;;;;;;5061011;28;20229;-65
2023/03/05 01:43:26;;;;;;;17.83;6.93;;;0.90;99.90;;;;;;5042068;28;20223;-66
2023/03/05 01:46:35;;;;;;;18.63;6.90;;;0.80;99.90;;;;;;5049653;28;20267;-65
2023/03/05 01:49:26;;;;;;;21.97;7.53;;;0.70;99.90;;;;;;5060029;28;20224;-66
2023/03/05 01:52:19;;;;;;;19.83;7.33;;;0.70;99.90;;;;;;5057626;28;20224;-65
2023/03/05 01:55:13;;;;;;;16.40;7.10;;;0.60;99.90;;;;;;5046450;28;20295;-66
2023/03/05 01:58:06;;;;;;;18.13;7.50;;;0.50;99.90;;;;;;5053087;28;20225;-65
2023/03/05 02:00:56;;;;;;;20.53;7.37;;;0.60;99.90;;;;;;5032904;28;20233;-64
2023/03/05 02:03:45;;;;;;;21.07;8.87;;;0.70;99.90;;;;;;5038252;28;21009;-65
2023/03/05 02:06:34;;;;;;;18.00;7.77;;;0.50;99.90;;;;;;5048441;28;20239;-66
2023/03/05 02:09:23;;;;;;;14.77;7.10;;;0.60;99.90;;;;;;5028211;28;20252;-65
2023/03/05 02:12:13;;;;;;;17.13;7.67;;;0.70;99.90;;;;;;5057289;28;20738;-66
2023/03/05 02:15:06;;;;;;;19.97;7.07;;;0.80;99.90;;;;;;5034310;28;20235;-66
2023/03/05 02:17:55;;;;;;;16.50;7.13;;;0.60;99.90;;;;;;5074385;28;20220;-65
2023/03/05 02:20:46;;;;;;;17.00;7.03;;;0.60;99.90;;;;;;5040914;28;20228;-65
2023/03/05 02:23:37;;;;;;;18.10;7.43;;;0.50;99.90;;;;;;5024937;28;20305;-65
2023/03/05 02:26:26;;;;;;;17.90;6.73;;;0.50;99.90;;;;;;5041659;28;20271;-66
2023/03/05 02:29:19;;;;;;;16.10;7.30;;;0.50;99.90;;;;;;5039186;28;20281;-66
2023/03/05 02:32:08;;;;;;;18.10;7.33;;;0.50;99.90;;;;;;5038954;28;20225;-63
2023/03/05 02:34:57;;;;;;;16.53;7.33;;;0.40;99.90;;;;;;5043168;28;20235;-67
2023/03/05 02:37:46;;;;;;;20.27;7.50;;;0.50;99.90;;;;;;5042446;28;20233;-66
2023/03/05 02:40:39;;;;;;;21.50;7.80;;;0.30;99.90;;;;;;5057885;28;20216;-66
2023/03/05 02:43:28;;;;;;;18.53;7.47;;;0.50;99.90;;;;;;5041808;28;20224;-65
2023/03/05 02:46:17;;;;;;;16.37;7.20;;;0.50;99.90;;;;;;5036599;28;20272;-65
2023/03/05 02:49:06;;;;;;;16.63;7.03;;;0.40;99.90;;;;;;5049027;28;20228;-64
2023/03/05 02:51:55;;;;;;;19.90;7.57;;;0.40;99.90;;;;;;5037337;28;20225;-65
2023/03/05 02:54:44;;;;;;;20.33;7.00;;;0.50;99.90;;;;;;5048066;28;20723;-65
2023/03/05 02:57:34;;;;;;;17.77;7.90;;;0.40;99.90;;;;;;5037794;28;20225;-65
2023/03/05 03:00:23;;;;;;;18.97;8.13;;;0.40;99.90;;;;;;5035910;28;20237;-65
2023/03/05 03:03:13;;;;;;;22.10;7.10;;;0.40;99.90;;;;;;5052067;28;20224;-65
2023/03/05 03:06:02;;;;;;;18.83;7.27;;;0.50;99.90;;;;;;5048390;28;20223;-63
2023/03/05 03:08:51;;;;;;;17.60;6.80;;;0.60;99.90;;;;;;5044514;28;20580;-64
2023/03/05 03:11:39;;;;;;;15.73;6.97;;;0.40;99.90;;;;;;5064272;28;20221;-64
2023/03/05 03:14:31;;;;;;;15.03;7.03;;;0.40;99.90;;;;;;5050488;28;20224;-64
2023/03/05 03:17:20;;;;;;;19.80;7.53;;;0.30;99.90;;;;;;5048530;28;20251;-65
2023/03/05 03:20:14;;;;;;;18.17;7.20;;;0.40;99.90;;;;;;5026645;28;20224;-63
2023/03/05 03:23:02;;;;;;;16.37;7.17;;;0.40;99.90;;;;;;5057016;28;20227;-66
2023/03/05 03:25:51;;;;;;;15.23;6.80;;;0.30;99.90;;;;;;5043661;28;20235;-65
2023/03/05 03:28:40;;;;;;;24.47;9.37;;;0.40;99.90;;;;;;5043572;28;20232;-63
2023/03/05 03:31:31;;;;;;;22.37;9.27;;;0.40;99.90;;;;;;5042024;28;20239;-62
2023/03/05 03:34:21;;;;;;;17.73;7.10;;;0.20;99.90;;;;;;5066122;28;20221;-62
2023/03/05 03:37:13;;;;;;;18.03;8.50;;;0.40;99.90;;;;;;5061045;28;20227;-65
2023/03/05 03:40:04;;;;;;;22.07;8.87;;;0.40;99.90;;;;;;5061509;28;20236;-65
2023/03/05 03:42:57;;;;;;;19.50;7.27;;;0.50;99.90;;;;;;5063763;28;20254;-64
2023/03/05 03:45:45;;;;;;;19.97;7.30;;;0.40;99.90;;;;;;5045201;28;20243;-63
2023/03/05 03:48:36;;;;;;;19.37;7.23;;;0.40;99.90;;;;;;5061813;28;20717;-62
2023/03/05 03:51:24;;;;;;;21.33;7.50;;;0.30;99.90;;;;;;5049865;28;20240;-64
2023/03/05 03:54:13;;;;;;;19.90;7.67;;;0.40;99.90;;;;;;5039136;28;20715;-63
2023/03/05 03:57:03;;;;;;;22.93;7.23;;;0.40;99.90;;;;;;5040534;28;20736;-63
2023/03/05 03:59:51;;;;;;;18.03;7.10;;;0.30;99.90;;;;;;5041688;28;20829;-63
2023/03/05 04:02:40;;;;;;;18.63;6.53;;;0.50;99.90;;;;;;5036239;28;20240;-64
2023/03/05 04:05:31;;;;;;;20.37;6.53;;;0.40;99.90;;;;;;5060528;28;20528;-64
2023/03/05 04:08:20;;;;;;;22.27;7.40;;;0.30;99.90;;;;;;5059477;28;20318;-64
2023/03/05 04:11:09;;;;;;;17.23;6.60;;;0.30;99.90;;;;;;5047538;28;20771;-65
2023/03/05 04:13:57;;;;;;;15.73;6.37;;;0.40;99.90;;;;;;5056778;28;20225;-65
2023/03/05 04:16:46;;;;;;;16.40;5.97;;;0.40;99.90;;;;;;5046259;28;20228;-63
2023/03/05 04:19:35;;;;;;;14.43;6.50;;;0.20;99.90;;;;;;5053502;28;20226;-63
2023/03/05 04:22:25;;;;;;;16.13;6.43;;;0.20;99.90;;;;;;5061960;28;20224;-64
2023/03/05 04:25:14;;;;;;;14.23;6.07;;;0.30;99.90;;;;;;5040980;28;20239;-63
2023/03/05 04:28:03;;;;;;;18.97;6.67;;;0.30;99.90;;;;;;5062074;28;20774;-64
2023/03/05 04:30:52;;;;;;;15.17;5.93;;;0.30;99.90;;;;;;5045387;28;20249;-66
2023/03/05 04:33:40;;;;;;;16.37;6.37;;;0.40;99.90;;;;;;5048105;28;20701;-66
2023/03/05 04:36:29;;;;;;;13.47;6.33;;;0.30;99.90;;;;;;5059280;28;20228;-67
2023/03/05 04:39:20;;;;;;;15.77;6.27;;;0.30;99.90;;;;;;5062503;28;20388;-67
2023/03/05 04:42:13;;;;;;;12.03;5.43;;;0.30;99.90;;;;;;5041919;28;20231;-67
2023/03/05 04:45:02;;;;;;;17.97;6.53;;;0.50;99.90;;;;;;5065017;28;20227;-68
2023/03/05 04:47:51;;;;;;;20.17;6.03;;;0.50;99.90;;;;;;5046236;28;20228;-66
2023/03/05 04:50:40;;;;;;;18.57;6.87;;;0.40;99.90;;;;;;5047850;28;20824;-66
2023/03/05 04:53:29;;;;;;;21.23;6.83;;;0.40;99.90;;;;;;5062664;28;20223;-66
2023/03/05 04:56:19;;;;;;;16.43;6.63;;;0.40;99.90;;;;;;5062369;28;20235;-64
2023/03/05 04:59:07;;;;;;;17.90;6.33;;;0.40;99.90;;;;;;5044272;28;20231;-66
2023/03/05 05:01:56;;;;;;;13.43;5.83;;;0.40;99.90;;;;;;5032979;28;20228;-65
2023/03/05 05:04:45;;;;;;;13.50;6.23;;;0.50;99.90;;;;;;5029864;28;20589;-65
2023/03/05 05:07:34;;;;;;;17.43;6.50;;;0.40;99.90;;;;;;5043620;28;20232;-65
2023/03/05 05:10:23;;;;;;;18.87;6.80;;;0.50;99.90;;;;;;5058079;28;20224;-66
2023/03/05 05:13:13;;;;;;;13.50;5.83;;;0.60;99.90;;;;;;5045418;28;20754;-64
2023/03/05 05:16:02;;;;;;;19.03;6.27;;;0.50;99.90;;;;;;5045551;28;20262;-63
2023/03/05 05:18:51;;;;;;;14.67;5.97;;;0.50;99.90;;;;;;5047994;28;20224;-64
2023/03/05 05:21:39;;;;;;;13.43;6.00;;;0.50;99.90;;;;;;5060356;28;20223;-62
2023/03/05 05:24:28;;;;;;;13.83;5.67;;;0.40;99.90;;;;;;5057811;28;20224;-63
2023/03/05 05:27:17;;;;;;;14.00;5.63;;;0.50;99.90;;;;;;5023680;28;20220;-68
2023/03/05 05:30:09;;;;;;;14.47;5.47;;;0.40;99.90;;;;;;5027776;28;20229;-63
2023/03/05 05:33:01;;;;;;;17.03;6.03;;;0.30;99.90;;;;;;5034051;28;20232;-66
2023/03/05 05:35:50;;;;;;;16.23;6.83;;;0.30;99.90;;;;;;5029552;28;20309;-64
2023/03/05 05:38:39;;;;;;;17.13;6.13;;;0.40;99.90;;;;;;5040441;28;20232;-64
2023/03/05 05:41:28;;;;;;;13.63;5.33;;;0.40;99.90;;;;;;5045802;28;20595;-63
2023/03/05 05:44:18;;;;;;;14.47;5.97;;;0.40;99.90;;;;;;5040409;28;20240;-66
2023/03/05 05:47:08;;;;;;;14.43;5.80;;;0.50;99.90;;;;;;5041782;28;21139;-64
2023/03/05 05:49:57;;;;;;;14.20;5.30;;;0.50;99.90;;;;;;5054659;28;20231;-64
2023/03/05 05:52:46;;;;;;;13.20;5.43;;;0.50;99.90;;;;;;5056217;28;20567;-63
2023/03/05 05:55:35;;;;;;;15.40;5.97;;;0.60;99.90;;;;;;5064470;28;20292;-63
2023/03/05 05:58:24;;;;;;;13.63;5.50;;;0.60;99.90;;;;;;5065583;28;20827;-66
2023/03/05 06:01:15;;;;;;;14.07;5.10;;;0.60;99.90;;;;;;5058693;28;20212;-67
2023/03/05 06:04:05;;;;;;;10.43;5.10;;;0.70;99.90;;;;;;5050659;28;20223;-65
2023/03/05 06:06:54;;;;;;;16.17;5.10;;;0.80;99.90;;;;;;5069641;28;20228;-65
2023/03/05 06:09:43;;;;;;;19.53;5.63;;;0.60;99.90;;;;;;5059661;28;20228;-65
2023/03/05 06:12:32;;;;;;;12.20;5.10;;;0.60;99.90;;;;;;5060665;28;20232;-64
2023/03/05 06:15:21;;;;;;;14.57;5.10;;;0.60;99.90;;;;;;5064604;28;20730;-63
2023/03/05 06:18:10;;;;;;;12.57;4.80;;;0.60;99.90;;;;;;5054078;28;20239;-63
2023/03/05 06:21:02;;;;;;;12.20;5.03;;;0.60;99.90;;;;;;5055684;28;20300;-64
2023/03/05 06:23:51;;;;;;;12.40;5.13;;;0.60;99.90;;;;;;5068210;28;20217;-63
2023/03/05 06:26:40;;;;;;;11.50;4.90;;;0.70;99.90;;;;;;5058948;28;20215;-62
2023/03/05 06:29:29;;;;;;;12.47;5.10;;;0.80;99.90;;;;;;5056948;28;20265;-66
2023/03/05 06:32:18;;;;;;;14.47;5.40;;;0.80;99.90;;;;;;5043435;28;20388;-64
2023/03/05 06:35:07;;;;;;;11.63;5.27;;;0.80;99.90;;;;;;5044477;28;20230;-64
2023/03/05 06:37:58;;;;;;;13.27;5.40;;;0.90;99.90;;;;;;5043714;28;20730;-64
2023/03/05 06:40:47;;;;;;;12.07;4.80;;;1.10;99.90;;;;;;5053590;28;20217;-64
2023/03/05 06:43:37;;;;;;;10.03;4.77;;;1.20;99.90;;;;;;5059166;28;20226;-64
2023/03/05 06:46:27;;;;;;;10.43;5.23;;;1.40;99.90;;;;;;5076587;28;20224;-63
2023/03/05 06:49:16;;;;;;;11.17;5.27;;;1.40;99.90;;;;;;5047122;28;20265;-64
2023/03/05 06:52:08;;;;;;;10.80;4.83;;;1.30;99.90;;;;;;5041432;28;20229;-65
2023/03/05 06:54:59;;;;;;;9.93;4.57;;;1.50;99.90;;;;;;5028996;28;20224;-65
2023/03/05 06:57:47;;;;;;;14.87;6.07;;;1.50;99.90;;;;;;5059796;28;20212;-64
2023/03/05 07:00:36;;;;;;;10.40;4.90;;;1.50;99.90;;;;;;5069664;28;20266;-64
2023/03/05 07:03:25;;;;;;;11.13;4.73;;;1.70;99.90;;;;;;5075754;28;20221;-64
2023/03/05 07:06:15;;;;;;;11.20;4.50;;;1.70;99.90;;;;;;5036574;28;20221;-63
2023/03/05 07:09:05;;;;;;;10.60;4.57;;;1.80;99.90;;;;;;5031694;28;20229;-65
2023/03/05 07:11:55;;;;;;;9.73;5.03;;;2.10;99.90;;;;;;5029071;28;20222;-64
2023/03/05 07:14:44;;;;;;;8.60;4.10;;;2.10;99.90;;;;;;5024647;28;20325;-64
2023/03/05 07:17:33;;;;;;;11.10;4.47;;;1.90;99.90;;;;;;5058165;28;20241;-66
2023/03/05 07:20:22;;;;;;;9.47;4.60;;;1.80;99.90;;;;;;5075110;28;20240;-64
2023/03/05 07:23:10;;;;;;;10.10;4.30;;;2.10;99.90;;;;;;5060770;28;20232;-65
2023/03/05 07:26:02;;;;;;;12.60;4.83;;;2.30;99.90;;;;;;5039383;28;20704;-65
2023/03/05 07:28:52;;;;;;;11.30;4.27;;;2.40;99.90;;;;;;5038655;28;20309;-65
2023/03/05 07:31:41;;;;;;;8.33;3.73;;;2.40;99.90;;;;;;5050160;28;20218;-64
2023/03/05 07:34:30;;;;;;;10.57;4.57;;;2.50;99.90;;;;;;5042648;28;20229;-64
2023/03/05 07:37:18;;;;;;;12.33;4.50;;;2.40;99.90;;;;;;5042658;28;20230;-63
2023/03/05 07:40:09;;;;;;;8.73;4.13;;;2.50;99.90;;;;;;5062647;28;20230;-65
2023/03/05 07:42:57;;;;;;;11.03;4.23;;;2.60;99.90;;;;;;5062269;28;20232;-65
2023/03/05 07:45:52;;;;;;;9.20;4.33;;;2.60;99.90;;;;;;5047416;28;20218;-66
2023/03/05 07:48:41;;;;;;;10.90;4.57;;;2.60;99.90;;;;;;5040156;28;20221;-64
2023/03/05 07:51:30;;;;;;;12.67;4.40;;;2.80;99.90;;;;;;5056435;28;20283;-66
2023/03/05 07:54:19;;;;;;;9.93;4.27;;;3.00;99.90;;;;;;5061209;28;20368;-64
2023/03/05 07:57:11;;;;;;;9.63;4.70;;;3.00;99.90;;;;;;5058287;28;20230;-65
2023/03/05 08:00:00;;;;;;;10.93;6.10;;;3.00;99.90;;;;;;5061469;28;20243;-65
2023/03/05 08:03:00;;;;;;;16.07;5.63;;;2.80;99.90;;;;;;5041766;28;20247;-67
2023/03/05 08:05:49;;;;;;;12.77;5.43;;;2.80;99.90;;;;;;5058398;28;20356;-66
2023/03/05 08:08:38;;;;;;;12.30;5.70;;;2.70;99.90;;;;;;5069345;28;20222;-64
2023/03/05 08:11:28;;;;;;;14.70;5.13;;;2.80;99.90;;;;;;5046394;28;20238;-63
2023/03/05 08:14:17;;;;;;;15.63;6.10;;;2.90;99.90;;;;;;5060366;28;20338;-66
2023/03/05 08:17:07;;;;;;;16.00;5.63;;;2.90;99.90;;;;;;5041665;28;20248;-64
2023/03/05 08:19:59;;;;;;;11.83;4.97;;;2.90;99.90;;;;;;5055149;28;20249;-65
2023/03/05 08:22:48;;;;;;;13.60;5.83;;;3.00;99.90;;;;;;5041447;28;21499;-66
2023/03/05 08:25:37;;;;;;;9.87;5.03;;;3.00;99.90;;;;;;5063397;28;20224;-67
2023/03/05 08:28:26;;;;;;;10.40;5.50;;;3.00;99.90;;;;;;5044666;28;20222;-63
2023/03/05 08:31:16;;;;;;;13.77;5.60;;;2.90;99.90;;;;;;5054781;28;20220;-63
2023/03/05 08:34:10;;;;;;;12.13;5.07;;;3.10;99.90;;;;;;5057798;28;20245;-63
2023/03/05 08:37:00;;;;;;;11.87;5.33;;;2.90;99.90;;;;;;5045281;28;20594;-64
2023/03/05 08:39:49;;;;;;;11.50;5.87;;;2.90;99.90;;;;;;5057536;28;21003;-64
2023/03/05 08:42:38;;;;;;;12.20;6.17;;;2.80;99.90;;;;;;5064680;28;20234;-64
2023/03/05 08:45:27;;;;;;;11.97;5.43;;;3.00;99.90;;;;;;5041362;28;20652;-65
2023/03/05 08:48:16;;;;;;;14.47;6.40;;;3.00;99.90;;;;;;5053274;28;21117;-68
2023/03/05 08:51:06;;;;;;;13.63;6.30;;;3.00;99.90;;;;;;5038973;28;20480;-66
2023/03/05 08:53:59;;;;;;;14.50;6.37;;;3.00;99.90;;;;;;5065781;28;20230;-66
2023/03/05 08:56:48;;;;;;;12.37;6.27;;;2.90;99.90;;;;;;5046086;28;20238;-65
2023/03/05 08:59:37;;;;;;;14.70;5.97;;;2.90;99.90;;;;;;5057533;28;20456;-64
2023/03/05 09:02:26;;;;;;;16.80;6.70;;;2.70;99.90;;;;;;5038219;28;20227;-65
2023/03/05 09:05:15;;;;;;;15.43;5.90;;;2.90;99.90;;;;;;5038155;28;20231;-65
2023/03/05 09:08:04;;;;;;;14.83;6.60;;;2.90;99.90;;;;;;5034125;28;21039;-67
2023/03/05 09:10:54;;;;;;;13.63;6.37;;;3.00;99.90;;;;;;5046969;28;20243;-65
2023/03/05 09:13:43;;;;;;;14.57;6.53;;;3.00;99.90;;;;;;5041182;28;20292;-65
2023/03/05 09:16:32;;;;;;;17.47;6.77;;;3.00;99.90;;;;;;5036361;28;20232;-65
2023/03/05 09:19:21;;;;;;;16.63;6.90;;;2.80;99.90;;;;;;5035970;28;20246;-65
2023/03/05 09:22:10;;;;;;;14.97;6.80;;;2.90;99.90;;;;;;5030218;28;20903;-66
2023/03/05 09:24:58;;;;;;;15.90;7.13;;;3.10;99.90;;;;;;5037322;28;20242;-66
